createdAt,value
2018-07-19T00:00:11.838Z,3.43
2018-07-19T00:02:40.464Z,5.70
2018-07-19T00:05:09.047Z,4.77
2018-07-19T00:07:37.692Z,4.87
2018-07-19T00:10:06.693Z,3.70
2018-07-19T00:12:35.659Z,4.60
2018-07-19T00:15:04.789Z,3.47
2018-07-19T00:17:33.320Z,5.93
2018-07-19T00:20:01.730Z,3.93
2018-07-19T00:22:30.257Z,3.83
2018-07-19T00:24:59.335Z,5.83
2018-07-19T00:27:28.215Z,3.90
2018-07-19T00:29:56.767Z,4.20
2018-07-19T00:32:25.586Z,4.57
2018-07-19T00:34:54.308Z,5.63
2018-07-19T00:37:22.868Z,3.90
2018-07-19T00:39:51.617Z,3.67
2018-07-19T00:42:20.250Z,5.43
2018-07-19T00:44:48.881Z,7.00
2018-07-19T00:47:17.435Z,5.57
2018-07-19T00:49:46.161Z,4.53
2018-07-19T00:52:14.830Z,4.30
2018-07-19T00:54:49.660Z,5.27
2018-07-19T00:57:18.565Z,5.33
2018-07-19T00:59:47.212Z,3.60
2018-07-19T01:02:16.209Z,3.90
2018-07-19T01:04:44.993Z,3.63
2018-07-19T01:07:13.611Z,4.17
2018-07-19T01:09:42.687Z,4.37
2018-07-19T01:12:11.342Z,5.33
2018-07-19T01:14:40.253Z,4.33
2018-07-19T01:17:08.850Z,3.80
2018-07-19T01:19:37.538Z,5.77
2018-07-19T01:22:06.228Z,7.30
2018-07-19T01:24:34.985Z,5.30
2018-07-19T01:27:03.820Z,5.20
2018-07-19T01:29:32.343Z,3.57
2018-07-19T01:32:00.962Z,3.70
2018-07-19T01:34:30.656Z,3.57
2018-07-19T01:36:59.928Z,5.97
2018-07-19T01:39:29.218Z,4.33
2018-07-19T01:42:18.550Z,4.57
2018-07-19T01:44:47.470Z,4.30
2018-07-19T01:47:16.188Z,4.40
2018-07-19T01:49:45.704Z,4.27
2018-07-19T01:52:15.108Z,4.93
2018-07-19T01:54:44.298Z,4.77
2018-07-19T01:57:14.030Z,4.10
2018-07-19T01:59:43.214Z,4.67
2018-07-19T02:02:12.534Z,4.43
2018-07-19T02:04:41.715Z,5.27
2018-07-19T02:07:11.056Z,4.30
2018-07-19T02:09:39.998Z,5.33
2018-07-19T02:12:09.502Z,4.13
2018-07-19T02:14:38.126Z,4.87
2018-07-19T02:17:06.962Z,5.10
2018-07-19T02:19:35.558Z,5.83
2018-07-19T02:22:04.338Z,5.57
2018-07-19T02:24:32.910Z,5.33
2018-07-19T02:27:02.038Z,4.03
2018-07-19T02:29:31.246Z,4.17
2018-07-19T02:32:00.037Z,4.10
2018-07-19T02:34:29.544Z,3.97
2018-07-19T02:36:58.874Z,4.90
2018-07-19T02:39:27.439Z,6.20
2018-07-19T02:41:56.131Z,14.97
2018-07-19T02:44:25.072Z,10.27
2018-07-19T02:46:53.876Z,10.23
2018-07-19T02:49:22.481Z,8.90
2018-07-19T02:51:51.191Z,9.57
2018-07-19T02:54:19.940Z,9.13
2018-07-19T02:56:48.665Z,10.03
2018-07-19T02:59:17.250Z,10.53
2018-07-19T03:01:46.035Z,8.20
2018-07-19T03:04:14.642Z,8.87
2018-07-19T03:06:43.233Z,8.93
2018-07-19T03:09:11.809Z,8.00
2018-07-19T03:11:40.467Z,8.93
2018-07-19T03:14:09.412Z,8.30
2018-07-19T03:16:38.051Z,7.93
2018-07-19T03:19:06.651Z,9.60
2018-07-19T03:21:35.425Z,11.77
2018-07-19T03:24:03.864Z,8.53
2018-07-19T03:26:32.523Z,7.17
2018-07-19T03:29:01.098Z,7.07
2018-07-19T03:31:30.198Z,7.07
2018-07-19T03:33:59.194Z,5.20
2018-07-19T03:36:28.158Z,6.80
2018-07-19T03:38:56.698Z,6.60
2018-07-19T03:41:26.432Z,5.60
2018-07-19T03:43:55.008Z,6.37
2018-07-19T03:46:23.630Z,5.90
2018-07-19T03:48:52.242Z,4.97
2018-07-19T03:51:20.976Z,4.83
2018-07-19T03:53:49.667Z,15.03
2018-07-19T03:56:18.293Z,15.00
2018-07-19T03:58:46.954Z,20.63
2018-07-19T04:01:15.558Z,17.67
2018-07-19T04:03:44.190Z,10.43
2018-07-19T04:06:12.774Z,11.23
2018-07-19T04:08:41.398Z,13.23
2018-07-19T04:11:10.109Z,24.70
2018-07-19T04:13:38.697Z,27.27
2018-07-19T04:16:07.251Z,31.13
2018-07-19T04:18:35.832Z,30.17
2018-07-19T04:21:05.449Z,31.27
2018-07-19T04:23:34.338Z,21.47
2018-07-19T04:26:03.328Z,15.80
2018-07-19T04:28:32.838Z,10.50
2018-07-19T04:31:02.595Z,12.37
2018-07-19T04:33:31.179Z,8.20
2018-07-19T04:36:00.148Z,13.07
2018-07-19T04:38:28.771Z,10.03
2018-07-19T04:40:58.346Z,9.30
2018-07-19T04:43:26.953Z,13.37
2018-07-19T04:45:55.566Z,8.80
2018-07-19T04:48:24.194Z,9.67
2018-07-19T04:50:53.706Z,11.03
2018-07-19T04:53:22.114Z,7.87
2018-07-19T04:55:50.687Z,8.03
2018-07-19T04:58:19.268Z,8.97
2018-07-19T05:00:47.849Z,8.03
2018-07-19T05:03:16.484Z,7.73
2018-07-19T05:05:45.212Z,9.63
2018-07-19T05:08:13.813Z,7.30
2018-07-19T05:10:42.570Z,9.73
2018-07-19T05:13:11.162Z,6.97
2018-07-19T05:15:39.743Z,8.57
2018-07-19T05:18:09.013Z,9.50
2018-07-19T05:20:38.606Z,10.50
2018-07-19T05:23:07.169Z,9.73
2018-07-19T05:25:35.848Z,7.47
2018-07-19T05:28:04.565Z,7.47
2018-07-19T05:30:34.259Z,7.77
2018-07-19T05:33:02.855Z,7.27
2018-07-19T05:35:32.175Z,8.33
2018-07-19T05:38:01.496Z,7.57
2018-07-19T05:40:32.071Z,8.97
2018-07-19T05:43:01.048Z,9.37
2018-07-19T05:45:29.787Z,5.60
2018-07-19T05:47:58.195Z,6.90
2018-07-19T05:50:27.002Z,7.50
2018-07-19T05:52:55.708Z,6.43
2018-07-19T05:55:24.325Z,7.37
2018-07-19T05:57:53.281Z,6.63
2018-07-19T06:00:22.016Z,6.30
2018-07-19T06:02:50.591Z,7.43
2018-07-19T06:05:19.267Z,8.33
2018-07-19T06:07:47.859Z,6.43
2018-07-19T06:10:16.514Z,6.87
2018-07-19T06:12:45.197Z,9.83
2018-07-19T06:15:13.603Z,9.43
2018-07-19T06:17:42.154Z,9.50
2018-07-19T06:20:10.878Z,11.50
2018-07-19T06:22:39.515Z,8.77
2018-07-19T06:25:08.546Z,8.80
2018-07-19T06:27:37.119Z,8.80
2018-07-19T06:30:07.251Z,8.27
2018-07-19T06:32:35.992Z,9.63
2018-07-19T06:35:04.742Z,7.67
2018-07-19T06:37:33.707Z,7.63
2018-07-19T06:40:02.983Z,8.03
2018-07-19T06:42:31.555Z,6.57
2018-07-19T06:45:00.655Z,6.33
2018-07-19T06:47:29.716Z,6.53
2018-07-19T06:49:58.441Z,7.73
2018-07-19T06:52:27.315Z,7.63
2018-07-19T06:54:56.110Z,11.77
2018-07-19T06:57:25.070Z,10.07
2018-07-19T06:59:53.823Z,6.20
2018-07-19T07:02:22.690Z,9.30
2018-07-19T07:04:51.670Z,7.30
2018-07-19T07:07:20.270Z,7.97
2018-07-19T07:09:48.933Z,8.50
2018-07-19T07:12:17.718Z,8.33
2018-07-19T07:14:46.396Z,5.97
2018-07-19T07:17:15.351Z,8.10
2018-07-19T07:19:44.085Z,6.63
2018-07-19T07:22:12.651Z,4.50
2018-07-19T07:24:41.114Z,5.93
2018-07-19T07:27:09.768Z,7.77
2018-07-19T07:29:38.485Z,9.07
2018-07-19T07:32:07.550Z,4.13
2018-07-19T07:34:36.237Z,6.80
2018-07-19T07:37:04.863Z,5.63
2018-07-19T07:39:34.877Z,5.40
2018-07-19T07:42:03.477Z,6.67
2018-07-19T07:44:32.467Z,7.77
2018-07-19T07:47:01.040Z,6.83
2018-07-19T07:49:29.668Z,5.90
2018-07-19T07:51:58.083Z,4.73
2018-07-19T07:54:26.707Z,6.17
2018-07-19T07:56:55.302Z,9.77
2018-07-19T07:59:24.328Z,4.30
2018-07-19T08:01:53.055Z,4.10
2018-07-19T08:04:21.485Z,8.07
2018-07-19T08:06:50.072Z,4.60
2018-07-19T08:09:18.773Z,4.97
2018-07-19T08:11:47.877Z,21.87
2018-07-19T08:14:16.475Z,12.47
2018-07-19T08:16:45.091Z,6.07
2018-07-19T08:19:13.781Z,4.20
2018-07-19T08:21:42.487Z,4.30
2018-07-19T08:24:11.292Z,3.90
2018-07-19T08:26:39.893Z,5.07
2018-07-19T08:29:08.578Z,5.00
2018-07-19T08:31:37.254Z,4.70
2018-07-19T08:34:06.146Z,5.57
2018-07-19T08:36:34.713Z,3.93
2018-07-19T08:39:03.383Z,4.63
2018-07-19T08:41:32.065Z,6.83
2018-07-19T08:44:01.292Z,6.50
2018-07-19T08:46:30.273Z,4.33
2018-07-19T08:48:58.682Z,4.17
2018-07-19T08:51:27.436Z,6.23
2018-07-19T08:53:56.147Z,4.87
2018-07-19T08:56:24.731Z,4.57
2018-07-19T08:58:53.334Z,4.00
2018-07-19T09:01:21.984Z,8.03
2018-07-19T09:03:50.691Z,6.73
2018-07-19T09:06:19.288Z,3.90
2018-07-19T09:08:47.872Z,4.30
2018-07-19T09:11:16.824Z,3.93
2018-07-19T09:13:45.687Z,6.60
2018-07-19T09:16:14.324Z,3.80
2018-07-19T09:18:42.409Z,3.37
2018-07-19T09:21:11.326Z,5.37
2018-07-19T09:23:39.946Z,3.77
2018-07-19T09:26:08.641Z,5.83
2018-07-19T09:28:37.371Z,4.10
2018-07-19T09:31:06.112Z,5.83
2018-07-19T09:33:34.802Z,6.17
2018-07-19T09:36:03.437Z,5.03
2018-07-19T09:38:32.673Z,6.60
2018-07-19T09:41:01.460Z,4.10
2018-07-19T09:43:30.115Z,5.37
2018-07-19T09:45:59.005Z,4.50
2018-07-19T09:48:27.578Z,4.17
2018-07-19T09:50:56.223Z,7.10
2018-07-19T09:53:24.806Z,6.03
2018-07-19T09:55:53.362Z,4.33
2018-07-19T09:58:22.020Z,4.17
2018-07-19T10:00:56.028Z,3.80
2018-07-19T10:03:24.628Z,4.90
2018-07-19T10:05:53.026Z,4.37
2018-07-19T10:08:21.675Z,5.40
2018-07-19T10:10:51.581Z,4.57
2018-07-19T10:13:20.135Z,4.80
2018-07-19T10:15:48.774Z,4.10
2018-07-19T10:18:17.691Z,4.67
2018-07-19T10:20:46.160Z,5.53
2018-07-19T10:23:14.811Z,4.47
2018-07-19T10:25:43.543Z,4.87
2018-07-19T10:28:12.259Z,4.50
2018-07-19T10:30:40.698Z,3.90
2018-07-19T10:33:08.972Z,4.30
2018-07-19T10:35:37.639Z,3.93
2018-07-19T10:38:06.332Z,3.73
2018-07-19T10:40:35.945Z,4.90
2018-07-19T10:43:04.624Z,7.83
2018-07-19T10:45:34.010Z,4.43
2018-07-19T10:48:03.239Z,6.60
2018-07-19T10:50:33.254Z,5.57
2018-07-19T10:53:01.896Z,5.57
2018-07-19T10:55:30.324Z,6.73
2018-07-19T10:57:58.702Z,4.67
2018-07-19T11:00:27.535Z,4.93
2018-07-19T11:02:56.356Z,6.03
2018-07-19T11:05:24.487Z,4.53
2018-07-19T11:07:53.242Z,8.07
2018-07-19T11:10:22.026Z,8.73
2018-07-19T11:12:50.726Z,3.93
2018-07-19T11:15:19.540Z,4.27
2018-07-19T11:17:47.895Z,4.33
2018-07-19T11:20:16.303Z,8.10
2018-07-19T11:22:44.754Z,4.20
2018-07-19T11:25:14.416Z,6.57
2018-07-19T11:27:43.479Z,6.27
2018-07-19T11:30:12.158Z,6.57
2018-07-19T11:32:40.560Z,4.97
2018-07-19T11:35:09.116Z,4.53
2018-07-19T11:37:37.502Z,3.90
2018-07-19T11:40:05.955Z,4.67
2018-07-19T11:42:34.336Z,4.00
2018-07-19T11:45:02.763Z,5.23
2018-07-19T11:47:31.127Z,4.50
2018-07-19T11:49:59.656Z,4.70
2018-07-19T11:52:28.198Z,4.43
2018-07-19T11:54:56.681Z,6.83
2018-07-19T11:57:25.411Z,5.17
2018-07-19T11:59:53.846Z,4.50
2018-07-19T12:02:22.262Z,4.73
2018-07-19T12:04:50.724Z,4.13
2018-07-19T12:07:19.481Z,3.97
2018-07-19T12:09:48.047Z,4.20
2018-07-19T12:12:16.538Z,4.17
2018-07-19T12:14:45.080Z,5.07
2018-07-19T12:17:13.564Z,5.83
2018-07-19T12:19:42.083Z,7.23
2018-07-19T12:22:10.521Z,6.97
2018-07-19T12:24:38.987Z,6.43
2018-07-19T12:27:07.367Z,5.33
2018-07-19T12:29:35.883Z,3.73
2018-07-19T12:32:05.513Z,3.80
2018-07-19T12:34:34.827Z,6.80
2018-07-19T12:37:03.938Z,5.10
2018-07-19T12:39:32.830Z,6.13
2018-07-19T12:42:02.365Z,3.77
2018-07-19T12:44:30.863Z,3.83
2018-07-19T12:46:59.244Z,3.40
2018-07-19T12:49:28.390Z,5.37
2018-07-19T12:51:56.814Z,4.23
2018-07-19T12:54:24.947Z,3.93
2018-07-19T12:56:53.399Z,3.57
2018-07-19T12:59:21.993Z,3.90
2018-07-19T13:01:50.443Z,3.57
2018-07-19T13:04:19.012Z,5.13
2018-07-19T13:06:47.522Z,3.73
2018-07-19T13:09:16.006Z,4.50
2018-07-19T13:11:44.781Z,5.13
2018-07-19T13:14:14.125Z,18.07
2018-07-19T13:16:42.692Z,4.20
2018-07-19T13:19:11.233Z,3.87
2018-07-19T13:21:39.975Z,3.97
2018-07-19T13:24:08.972Z,3.77
2018-07-19T13:26:37.822Z,4.23
2018-07-19T13:29:06.319Z,4.97
2018-07-19T13:31:34.910Z,3.70
2018-07-19T13:34:03.970Z,4.40
2018-07-19T13:36:32.738Z,4.37
2018-07-19T13:39:01.250Z,5.13
2018-07-19T13:41:29.709Z,5.23
2018-07-19T13:43:58.251Z,3.63
2018-07-19T13:46:26.807Z,3.67
2018-07-19T13:48:55.257Z,6.17
2018-07-19T13:51:23.617Z,4.17
2018-07-19T13:54:14.674Z,3.73
2018-07-19T13:56:43.582Z,4.20
2018-07-19T13:59:12.232Z,3.30
2018-07-19T14:01:41.026Z,5.23
2018-07-19T14:04:09.813Z,3.50
2018-07-19T14:06:38.395Z,3.53
2018-07-19T14:09:08.790Z,5.57
2018-07-19T14:11:37.503Z,4.33
2018-07-19T14:14:06.125Z,4.67
2018-07-19T14:16:35.144Z,4.20
2018-07-19T14:19:04.698Z,5.20
2018-07-19T14:21:33.198Z,3.77
2018-07-19T14:24:01.641Z,4.93
2018-07-19T14:26:30.209Z,3.83
2018-07-19T14:28:58.645Z,4.17
2018-07-19T14:31:28.170Z,4.00
2018-07-19T14:33:56.516Z,3.77
2018-07-19T14:36:25.019Z,5.03
2018-07-19T14:38:53.332Z,4.27
2018-07-19T14:41:22.191Z,5.97
2018-07-19T14:43:50.603Z,3.87
2018-07-19T14:46:19.083Z,4.30
2018-07-19T14:48:47.425Z,3.70
2018-07-19T14:51:16.856Z,4.20
2018-07-19T14:53:45.223Z,5.73
2018-07-19T14:56:14.417Z,4.10
2018-07-19T14:58:43.895Z,3.97
2018-07-19T15:01:13.431Z,4.33
2018-07-19T15:03:42.566Z,4.30
2018-07-19T15:06:11.225Z,4.03
2018-07-19T15:08:39.698Z,3.80
2018-07-19T15:11:08.054Z,5.03
2018-07-19T15:13:36.428Z,4.73
2018-07-19T15:16:05.547Z,3.53
2018-07-19T15:18:33.931Z,4.90
2018-07-19T15:21:03.384Z,4.80
2018-07-19T15:23:32.105Z,7.17
2018-07-19T15:26:00.610Z,4.23
2018-07-19T15:28:29.029Z,5.23
2018-07-19T15:30:58.572Z,4.10
2018-07-19T15:33:26.968Z,3.77
2018-07-19T15:35:55.409Z,4.90
2018-07-19T15:38:23.831Z,4.87
2018-07-19T15:40:53.347Z,4.43
2018-07-19T15:43:21.699Z,5.27
2018-07-19T15:45:50.115Z,3.70
2018-07-19T15:48:18.486Z,4.63
2018-07-19T15:50:46.920Z,6.03
2018-07-19T15:53:15.325Z,3.80
2018-07-19T15:55:44.522Z,5.40
2018-07-19T15:58:13.330Z,4.07
2018-07-19T16:00:43.593Z,4.07
2018-07-19T16:03:11.957Z,4.73
2018-07-19T16:05:40.430Z,3.93
2018-07-19T16:08:08.762Z,4.30
2018-07-19T16:10:38.520Z,4.77
2018-07-19T16:13:06.927Z,5.10
2018-07-19T16:15:35.419Z,6.77
2018-07-19T16:18:03.798Z,6.70
2018-07-19T16:20:33.365Z,4.50
2018-07-19T16:23:02.370Z,4.57
2018-07-19T16:25:30.882Z,4.00
2018-07-19T16:27:59.240Z,4.87
2018-07-19T16:30:27.676Z,3.73
2018-07-19T16:32:56.076Z,6.30
2018-07-19T16:35:24.719Z,6.57
2018-07-19T16:37:53.093Z,4.27
2018-07-19T16:40:21.473Z,6.97
2018-07-19T16:42:49.825Z,3.93
2018-07-19T16:45:18.494Z,4.40
2018-07-19T16:47:46.891Z,3.73
2018-07-19T16:50:15.381Z,5.00
2018-07-19T16:52:44.033Z,5.20
2018-07-19T16:55:12.628Z,3.70
2018-07-19T16:57:41.202Z,5.20
2018-07-19T17:00:09.679Z,4.07
2018-07-19T17:02:38.046Z,4.80
2018-07-19T17:05:06.682Z,3.70
2018-07-19T17:07:35.048Z,3.90
2018-07-19T17:10:03.471Z,3.90
2018-07-19T17:12:32.077Z,4.10
2018-07-19T17:15:00.483Z,4.23
2018-07-19T17:17:29.117Z,4.13
2018-07-19T17:19:57.552Z,4.20
2018-07-19T17:22:26.054Z,11.73
2018-07-19T17:24:54.833Z,4.77
2018-07-19T17:27:23.373Z,3.83
2018-07-19T17:29:51.778Z,3.60
2018-07-19T17:32:20.233Z,4.20
2018-07-19T17:34:48.631Z,4.50
2018-07-19T17:37:17.050Z,4.10
2018-07-19T17:39:45.539Z,5.60
2018-07-19T17:42:13.993Z,3.97
2018-07-19T17:44:42.456Z,3.90
2018-07-19T17:47:10.907Z,3.67
2018-07-19T17:49:39.295Z,5.57
2018-07-19T17:52:07.935Z,5.30
2018-07-19T17:54:36.513Z,6.03
2018-07-19T17:57:05.235Z,4.83
2018-07-19T17:59:33.617Z,4.97
2018-07-19T18:02:04.365Z,6.30
2018-07-19T18:04:32.826Z,4.03
2018-07-19T18:07:01.322Z,3.80
2018-07-19T18:09:29.874Z,6.37
2018-07-19T18:11:58.411Z,5.47
2018-07-19T18:14:26.812Z,4.13
2018-07-19T18:16:55.212Z,6.23
2018-07-19T18:19:23.637Z,5.13
2018-07-19T18:21:52.090Z,5.70
2018-07-19T18:24:20.527Z,4.00
2018-07-19T18:26:49.043Z,5.90
2018-07-19T18:29:17.391Z,4.73
2018-07-19T18:31:45.877Z,4.87
2018-07-19T18:34:14.313Z,6.37
2018-07-19T18:36:43.874Z,4.00
2018-07-19T18:39:13.278Z,7.50
2018-07-19T18:41:41.886Z,4.93
2018-07-19T18:44:10.258Z,4.90
2018-07-19T18:46:38.737Z,4.40
2018-07-19T18:49:07.182Z,4.33
2018-07-19T18:51:35.694Z,5.50
2018-07-19T18:54:04.419Z,10.20
2018-07-19T18:56:33.036Z,4.00
2018-07-19T18:59:01.407Z,8.27
2018-07-19T19:01:29.901Z,4.23
2018-07-19T19:03:58.244Z,5.10
2018-07-19T19:06:26.737Z,4.93
2018-07-19T19:08:55.270Z,5.13
2018-07-19T19:11:23.812Z,6.40
2018-07-19T19:13:52.234Z,5.03
2018-07-19T19:16:21.121Z,5.70
2018-07-19T19:18:49.563Z,4.67
2018-07-19T19:21:18.012Z,5.60
2018-07-19T19:23:46.419Z,4.87
2018-07-19T19:26:14.994Z,4.27
2018-07-19T19:28:44.124Z,4.27
2018-07-19T19:31:13.430Z,4.37
2018-07-19T19:33:41.869Z,4.30
2018-07-19T19:36:10.359Z,5.77
2018-07-19T19:38:38.826Z,5.77
2018-07-19T19:41:07.309Z,8.40
2018-07-19T19:43:35.959Z,4.00
2018-07-19T19:46:04.722Z,6.73
2018-07-19T19:48:36.127Z,6.17
2018-07-19T19:51:06.081Z,5.93
2018-07-19T19:53:34.662Z,4.63
2018-07-19T19:56:03.606Z,4.17
2018-07-19T19:58:32.345Z,6.87
2018-07-19T20:01:01.080Z,5.43
2018-07-19T20:03:29.865Z,4.63
2018-07-19T20:05:58.669Z,5.63
2018-07-19T20:08:27.395Z,4.43
2018-07-19T20:10:55.485Z,5.17
2018-07-19T20:13:23.998Z,6.07
2018-07-19T20:15:52.415Z,7.17
2018-07-19T20:18:20.953Z,6.67
2018-07-19T20:20:49.395Z,5.43
2018-07-19T20:23:17.850Z,7.87
2018-07-19T20:25:46.220Z,5.10
2018-07-19T20:28:14.992Z,7.90
2018-07-19T20:30:44.265Z,5.40
2018-07-19T20:33:13.249Z,6.10
2018-07-19T20:35:41.763Z,8.57
2018-07-19T20:38:10.180Z,4.40
2018-07-19T20:40:39.386Z,5.17
2018-07-19T20:43:08.269Z,4.97
2018-07-19T20:45:36.820Z,3.97
2018-07-19T20:48:05.146Z,5.57
2018-07-19T20:50:33.682Z,4.53
2018-07-19T20:53:02.127Z,5.57
2018-07-19T20:55:30.637Z,4.50
2018-07-19T20:57:59.038Z,5.47
2018-07-19T21:00:27.682Z,4.50
2018-07-19T21:02:56.045Z,5.40
2018-07-19T21:05:24.478Z,8.67
2018-07-19T21:07:52.869Z,5.70
2018-07-19T21:10:21.396Z,4.33
2018-07-19T21:12:49.824Z,5.00
2018-07-19T21:15:18.393Z,4.17
2018-07-19T21:17:46.757Z,4.50
2018-07-19T21:20:15.337Z,4.43
2018-07-19T21:22:43.763Z,5.73
2018-07-19T21:25:12.277Z,6.40
2018-07-19T21:27:40.638Z,7.80
2018-07-19T21:30:09.887Z,6.07
2018-07-19T21:32:38.922Z,4.60
2018-07-19T21:35:07.360Z,4.43
2018-07-19T21:37:35.778Z,5.07
2018-07-19T21:40:04.306Z,4.40
2018-07-19T21:42:32.696Z,4.80
2018-07-19T21:45:01.251Z,4.60
2018-07-19T21:47:29.676Z,4.27
2018-07-19T21:49:58.231Z,6.17
2018-07-19T21:52:26.588Z,5.50
2018-07-19T21:54:55.180Z,4.37
2018-07-19T21:57:23.609Z,5.57
2018-07-19T21:59:52.069Z,4.03
2018-07-19T22:02:20.490Z,4.73
2018-07-19T22:04:48.958Z,5.57
2018-07-19T22:07:17.491Z,4.77
2018-07-19T22:09:46.226Z,6.20
2018-07-19T22:12:14.693Z,9.80
2018-07-19T22:14:43.170Z,5.57
2018-07-19T22:17:11.594Z,5.90
2018-07-19T22:19:40.196Z,4.10
2018-07-19T22:22:09.236Z,3.80
2018-07-19T22:24:37.769Z,4.93
2018-07-19T22:27:06.153Z,4.57
2018-07-19T22:29:34.665Z,4.07
2018-07-19T22:32:03.454Z,5.13
2018-07-19T22:34:31.738Z,6.30
2018-07-19T22:37:00.103Z,4.17
2018-07-19T22:39:28.639Z,4.70
2018-07-19T22:41:57.594Z,3.80
2018-07-19T22:44:26.095Z,4.10
2018-07-19T22:46:54.483Z,4.57
2018-07-19T22:49:23.244Z,6.17
2018-07-19T22:51:51.636Z,5.23
2018-07-19T22:54:20.647Z,4.43
2018-07-19T22:56:49.821Z,4.17
2018-07-19T22:59:18.764Z,4.63
2018-07-19T23:01:47.342Z,4.20
2018-07-19T23:04:15.834Z,4.47
2018-07-19T23:06:44.390Z,4.80
2018-07-19T23:09:12.883Z,4.30
2018-07-19T23:11:41.276Z,4.23
2018-07-19T23:14:09.856Z,4.03
2018-07-19T23:16:38.297Z,5.97
2018-07-19T23:19:06.897Z,5.37
2018-07-19T23:21:35.590Z,6.60
2018-07-19T23:24:04.106Z,4.67
2018-07-19T23:26:32.552Z,5.40
2018-07-19T23:29:01.148Z,4.30
2018-07-19T23:31:29.558Z,5.47
2018-07-19T23:33:58.023Z,4.23
2018-07-19T23:36:35.610Z,4.47
2018-07-19T23:39:15.741Z,3.80
2018-07-19T23:41:51.074Z,5.03
2018-07-19T23:44:25.014Z,4.10
2018-07-19T23:47:11.873Z,3.73
2018-07-19T23:49:41.064Z,6.13
2018-07-19T23:52:09.966Z,4.23
2018-07-19T23:54:39.180Z,5.13
2018-07-19T23:57:07.681Z,5.70
2018-07-19T23:59:36.078Z,5.80
